Terminal Aerodrome Forecast
Issued by NWS Sterling, VA

Current Version | Previous Version | Graphics & Text | Print | Product List | Glossary On
Versions: 1 2 3 4 5 6 7 8 9 10 11 12 13 14 15 16 17 18 19 20
574
FTUS41 KLWX 032331
TAFMRB
TAF
KMRB 032331Z 0400/0424 VRB03KT P6SM -SHRA VCTS BKN050CB
     FM040200 VRB03KT P6SM BKN025
     FM040400 VRB03KT P6SM BKN015
     FM040700 00000KT P6SM BKN008
     FM040900 00000KT P6SM BKN003
     FM041100 00000KT P6SM BKN008
     FM041600 10004KT P6SM -SHRA BKN025
     FM041900 10004KT P6SM -SHRA BKN020=

USA.gov is the U.S. government's official web portal to all federal, state and local government web resources and services.